createdAt,value
2023-03-26T00:01:38.712Z,9.85
2023-03-26T00:04:06.784Z,7.28
2023-03-26T00:06:38.626Z,11.93
2023-03-26T00:09:07.749Z,8.73
2023-03-26T00:11:34.589Z,10.18
2023-03-26T00:14:02.653Z,9.93
2023-03-26T00:16:31.020Z,11.10
2023-03-26T00:18:58.044Z,11.45
2023-03-26T00:21:27.793Z,13.80
2023-03-26T00:23:59.846Z,10.23
2023-03-26T00:26:27.324Z,6.72
2023-03-26T00:28:54.393Z,9.02
2023-03-26T00:31:20.989Z,12.70
2023-03-26T00:33:47.716Z,8.02
2023-03-26T00:36:17.190Z,8.25
2023-03-26T00:38:45.059Z,7.30
2023-03-26T00:41:17.798Z,8.90
2023-03-26T00:43:48.811Z,12.80
2023-03-26T00:46:17.475Z,8.18
2023-03-26T00:48:46.004Z,9.85
2023-03-26T00:51:17.736Z,10.63
2023-03-26T00:53:45.613Z,11.87
2023-03-26T00:56:12.597Z,12.05
2023-03-26T00:58:39.223Z,11.27
2023-03-26T01:01:14.455Z,10.38
2023-03-26T01:03:53.211Z,9.20
2023-03-26T01:06:32.817Z,7.20
2023-03-26T01:09:04.514Z,10.30
2023-03-26T01:11:32.767Z,10.05
2023-03-26T01:14:11.478Z,7.93
2023-03-26T01:16:55.389Z,10.15
2023-03-26T01:19:39.791Z,9.30
2023-03-26T01:22:11.018Z,9.95
2023-03-26T01:24:39.173Z,8.88
2023-03-26T01:27:14.764Z,10.80
2023-03-26T01:29:58.301Z,9.30
2023-03-26T01:33:03.699Z,9.25
2023-03-26T01:36:04.532Z,10.63
2023-03-26T01:38:48.129Z,14.90
2023-03-26T01:41:54.611Z,12.35
2023-03-26T01:44:42.793Z,6.60
2023-03-26T01:47:09.703Z,10.15
2023-03-26T01:49:36.336Z,10.98
2023-03-26T01:52:02.854Z,13.65
2023-03-26T01:54:31.269Z,8.85
2023-03-26T01:57:12.319Z,16.42
2023-03-26T01:59:52.464Z,10.85
2023-03-26T02:02:28.846Z,12.38
2023-03-26T02:05:32.328Z,16.98
2023-03-26T02:08:06.154Z,13.77
2023-03-26T02:10:36.641Z,16.42
2023-03-26T02:13:03.239Z,15.63
2023-03-26T02:15:29.687Z,12.02
2023-03-26T02:17:56.124Z,13.35
2023-03-26T02:20:22.689Z,14.88
2023-03-26T02:22:49.126Z,18.52
2023-03-26T02:25:18.450Z,17.17
2023-03-26T02:27:45.408Z,16.30
2023-03-26T02:30:17.520Z,16.90
2023-03-26T02:32:44.147Z,14.75
2023-03-26T02:35:11.907Z,14.10
2023-03-26T02:37:38.979Z,14.00
2023-03-26T02:40:11.041Z,14.63
2023-03-26T02:42:37.931Z,11.90
2023-03-26T02:45:06.044Z,12.48
2023-03-26T02:47:33.583Z,15.25
2023-03-26T02:50:00.000Z,12.02
2023-03-26T02:52:26.382Z,12.95
2023-03-26T02:54:53.457Z,12.00
2023-03-26T02:57:20.026Z,15.27
2023-03-26T02:59:46.379Z,14.80
2023-03-26T03:02:13.399Z,14.75
2023-03-26T03:04:40.402Z,14.43
2023-03-26T03:07:07.673Z,15.75
2023-03-26T03:09:34.628Z,17.20
2023-03-26T03:12:01.045Z,12.25
2023-03-26T03:14:27.456Z,19.65
2023-03-26T03:16:54.040Z,14.48
2023-03-26T03:19:20.593Z,17.50
2023-03-26T03:21:47.030Z,15.95
2023-03-26T03:24:13.932Z,14.38
2023-03-26T03:26:41.229Z,16.77
2023-03-26T03:29:07.679Z,12.45
2023-03-26T03:31:34.039Z,14.15
2023-03-26T03:34:00.430Z,13.38
2023-03-26T03:36:30.349Z,16.10
2023-03-26T03:39:02.169Z,15.43
2023-03-26T03:41:30.210Z,15.25
2023-03-26T03:43:58.868Z,19.85
2023-03-26T03:46:25.805Z,14.63
2023-03-26T03:48:52.203Z,13.50
2023-03-26T03:51:18.643Z,20.42
2023-03-26T03:53:46.025Z,14.55
2023-03-26T03:56:14.556Z,15.82
2023-03-26T03:58:41.626Z,17.65
2023-03-26T04:01:08.021Z,18.63
2023-03-26T04:03:38.713Z,16.02
2023-03-26T04:06:11.052Z,18.80
2023-03-26T04:08:37.450Z,16.08
2023-03-26T04:11:04.058Z,18.02
2023-03-26T04:13:30.718Z,20.17
2023-03-26T04:15:57.405Z,16.30
2023-03-26T04:18:24.076Z,16.85
2023-03-26T04:20:50.784Z,21.48
2023-03-26T04:23:18.425Z,16.90
2023-03-26T04:25:48.348Z,21.05
2023-03-26T04:28:26.411Z,19.92
2023-03-26T04:30:54.585Z,22.52
2023-03-26T04:33:21.230Z,20.08
2023-03-26T04:35:50.917Z,15.75
2023-03-26T04:38:18.487Z,20.05
2023-03-26T04:40:47.440Z,18.90
2023-03-26T04:43:16.353Z,26.42
2023-03-26T04:45:43.715Z,17.65
2023-03-26T04:48:14.251Z,24.42
2023-03-26T04:50:42.560Z,20.88
2023-03-26T04:53:13.372Z,20.35
2023-03-26T04:55:45.332Z,24.27
2023-03-26T04:58:13.931Z,18.65
2023-03-26T05:00:41.529Z,19.35
2023-03-26T05:03:11.608Z,23.02
2023-03-26T05:05:38.730Z,24.42
2023-03-26T05:08:05.582Z,25.85
2023-03-26T05:10:32.044Z,18.95
2023-03-26T05:12:58.611Z,23.67
2023-03-26T05:15:25.041Z,20.40
2023-03-26T05:17:51.771Z,25.63
2023-03-26T05:20:24.016Z,21.35
2023-03-26T05:22:50.506Z,20.33
2023-03-26T05:25:17.631Z,17.90
2023-03-26T05:27:44.931Z,19.88
2023-03-26T05:30:15.316Z,25.60
2023-03-26T05:32:42.197Z,21.60
2023-03-26T05:35:09.366Z,19.60
2023-03-26T05:37:37.634Z,23.60
2023-03-26T05:40:07.726Z,21.33
2023-03-26T05:42:34.076Z,20.75
2023-03-26T05:45:00.488Z,23.23
2023-03-26T05:47:27.428Z,21.63
2023-03-26T05:49:53.955Z,20.75
2023-03-26T05:52:20.487Z,22.27
2023-03-26T05:54:47.125Z,22.95
2023-03-26T05:57:13.673Z,18.17
2023-03-26T05:59:40.123Z,16.25
2023-03-26T06:02:06.521Z,18.95
2023-03-26T06:04:33.123Z,21.67
2023-03-26T06:06:59.664Z,20.70
2023-03-26T06:09:26.372Z,22.90
2023-03-26T06:11:52.766Z,18.75
2023-03-26T06:14:19.188Z,20.20
2023-03-26T06:16:45.648Z,21.55
2023-03-26T06:19:12.117Z,20.25
2023-03-26T06:21:38.655Z,20.95
2023-03-26T06:24:05.291Z,22.85
2023-03-26T06:26:31.761Z,19.52
2023-03-26T06:28:58.208Z,22.60
2023-03-26T06:31:24.604Z,19.90
2023-03-26T06:33:51.232Z,20.73
2023-03-26T06:36:17.688Z,20.55
2023-03-26T06:38:44.296Z,19.15
2023-03-26T06:41:10.955Z,18.10
2023-03-26T06:43:38.993Z,20.95
2023-03-26T06:46:05.761Z,23.25
2023-03-26T06:48:32.300Z,18.35
2023-03-26T06:50:58.718Z,18.50
2023-03-26T06:53:25.171Z,19.65
2023-03-26T06:55:53.635Z,18.52
2023-03-26T06:58:20.465Z,21.70
2023-03-26T07:00:46.988Z,21.75
2023-03-26T07:03:13.630Z,21.55
2023-03-26T07:05:43.216Z,22.17
2023-03-26T07:08:09.681Z,24.15
2023-03-26T07:10:36.105Z,22.27
2023-03-26T07:13:02.463Z,20.02
2023-03-26T07:15:29.122Z,18.25
2023-03-26T07:17:56.246Z,16.75
2023-03-26T07:20:23.068Z,20.42
2023-03-26T07:22:49.814Z,21.33
2023-03-26T07:25:17.555Z,17.67
2023-03-26T07:28:13.694Z,16.85
2023-03-26T07:30:58.241Z,22.83
2023-03-26T07:33:31.910Z,27.38
2023-03-26T07:36:21.559Z,21.65
2023-03-26T07:38:53.627Z,19.67
2023-03-26T07:41:29.186Z,17.23
2023-03-26T07:44:23.126Z,20.27
2023-03-26T07:46:53.285Z,23.00
2023-03-26T07:49:20.427Z,21.75
2023-03-26T07:51:47.888Z,19.75
2023-03-26T07:54:14.558Z,19.58
2023-03-26T07:56:58.038Z,20.85
2023-03-26T07:59:47.839Z,21.08
2023-03-26T08:02:37.025Z,19.13
2023-03-26T08:05:18.965Z,19.15
2023-03-26T08:08:10.624Z,15.05
2023-03-26T08:10:55.675Z,19.73
2023-03-26T08:13:28.971Z,17.05
2023-03-26T08:16:15.571Z,15.35
2023-03-26T08:18:56.426Z,14.77
2023-03-26T08:21:35.454Z,15.85
2023-03-26T08:24:27.789Z,14.90
2023-03-26T08:27:23.465Z,14.68
2023-03-26T08:30:09.597Z,16.45
2023-03-26T08:32:36.288Z,13.73
2023-03-26T08:35:04.239Z,14.80
2023-03-26T08:37:30.644Z,15.50
2023-03-26T08:39:57.513Z,16.10
2023-03-26T08:42:38.861Z,13.50
2023-03-26T08:45:38.845Z,12.15
2023-03-26T08:48:34.701Z,13.60
2023-03-26T08:51:14.048Z,15.60
2023-03-26T08:54:20.538Z,13.13
2023-03-26T08:57:20.386Z,11.90
2023-03-26T08:59:58.847Z,12.50
2023-03-26T09:02:53.439Z,10.23
2023-03-26T09:05:59.382Z,11.65
2023-03-26T09:08:53.722Z,12.70
2023-03-26T09:11:32.271Z,11.95
2023-03-26T09:14:33.934Z,13.32
2023-03-26T09:17:12.579Z,10.57
2023-03-26T09:19:52.690Z,7.63
2023-03-26T09:22:42.440Z,10.32
2023-03-26T09:25:21.243Z,11.43
2023-03-26T09:27:56.251Z,8.85
2023-03-26T09:30:36.161Z,9.88
2023-03-26T09:33:42.612Z,8.43
2023-03-26T09:36:20.498Z,11.32
2023-03-26T09:39:17.424Z,10.35
2023-03-26T09:41:48.448Z,9.35
2023-03-26T09:44:40.894Z,8.98
2023-03-26T09:47:28.641Z,10.25
2023-03-26T09:50:13.075Z,9.35
2023-03-26T09:53:02.862Z,9.10
2023-03-26T09:55:44.713Z,9.40
2023-03-26T09:58:42.183Z,14.57
2023-03-26T10:01:14.732Z,12.57
2023-03-26T10:04:01.868Z,12.25
2023-03-26T10:06:42.508Z,7.72
2023-03-26T10:09:31.076Z,10.45
2023-03-26T10:12:16.019Z,10.05
2023-03-26T10:15:00.779Z,9.75
2023-03-26T10:17:58.951Z,11.20
2023-03-26T10:21:19.133Z,12.60
2023-03-26T10:23:59.173Z,16.15
2023-03-26T10:26:42.865Z,10.63
2023-03-26T10:29:29.071Z,10.73
2023-03-26T10:32:09.932Z,13.48
2023-03-26T10:35:04.466Z,10.75
2023-03-26T10:37:44.512Z,10.32
2023-03-26T10:40:21.093Z,10.77
2023-03-26T10:43:01.655Z,13.18
2023-03-26T10:45:45.134Z,11.20
2023-03-26T10:48:33.371Z,11.77
2023-03-26T10:51:33.823Z,10.80
2023-03-26T10:54:11.990Z,12.70
2023-03-26T10:56:46.508Z,11.70
2023-03-26T10:59:14.351Z,11.00
2023-03-26T11:01:47.393Z,12.32
2023-03-26T11:04:22.323Z,14.15
2023-03-26T11:07:07.357Z,10.45
2023-03-26T11:09:54.365Z,9.57
2023-03-26T11:12:42.013Z,10.23
2023-03-26T11:15:14.439Z,10.88
2023-03-26T11:20:17.501Z,10.38
2023-03-26T11:23:11.849Z,10.98
2023-03-26T11:25:59.404Z,11.40
2023-03-26T11:29:03.972Z,12.95
2023-03-26T11:31:47.737Z,10.70
2023-03-26T11:34:18.546Z,12.23
2023-03-26T11:36:48.942Z,13.23
2023-03-26T11:39:26.988Z,8.57
2023-03-26T11:42:03.388Z,13.57
2023-03-26T11:44:34.586Z,11.20
2023-03-26T11:47:05.043Z,8.80
2023-03-26T11:49:32.214Z,11.38
2023-03-26T11:51:59.167Z,11.35
2023-03-26T11:54:25.669Z,9.45
2023-03-26T11:57:04.558Z,10.10
2023-03-26T11:59:49.084Z,9.73
2023-03-26T12:02:35.538Z,8.55
2023-03-26T12:05:26.325Z,8.70
2023-03-26T12:08:01.384Z,11.25
2023-03-26T12:10:39.072Z,14.10
2023-03-26T12:13:20.581Z,11.55
2023-03-26T12:15:47.152Z,9.82
2023-03-26T12:18:26.119Z,9.40
2023-03-26T12:21:11.366Z,8.63
2023-03-26T12:23:57.977Z,10.35
2023-03-26T12:26:41.914Z,8.52
2023-03-26T12:29:13.949Z,11.05
2023-03-26T12:31:55.484Z,6.90
2023-03-26T12:34:23.910Z,6.03
2023-03-26T12:36:55.618Z,7.30
2023-03-26T12:40:08.862Z,8.18
2023-03-26T12:44:49.205Z,7.82
2023-03-26T12:45:30.851Z,6.60
2023-03-26T12:48:04.031Z,6.63
2023-03-26T12:50:45.709Z,5.55
2023-03-26T12:53:24.507Z,7.68
2023-03-26T12:56:09.343Z,7.18
2023-03-26T12:58:51.078Z,5.53
2023-03-26T13:01:34.317Z,6.73
2023-03-26T13:04:08.345Z,7.30
2023-03-26T13:07:00.830Z,6.18
2023-03-26T13:10:16.845Z,9.63
2023-03-26T13:12:49.091Z,9.25
2023-03-26T13:15:37.099Z,9.85
2023-03-26T13:18:31.387Z,7.97
2023-03-26T13:21:00.101Z,8.88
2023-03-26T13:23:36.474Z,8.60
2023-03-26T13:26:14.380Z,9.68
2023-03-26T13:29:06.848Z,8.13
2023-03-26T13:31:41.884Z,11.05
2023-03-26T13:34:29.785Z,9.80
2023-03-26T13:37:15.921Z,10.07
2023-03-26T13:39:54.580Z,9.60
2023-03-26T13:42:44.195Z,13.13
2023-03-26T13:45:33.986Z,13.15
2023-03-26T13:48:02.300Z,16.17
2023-03-26T13:50:37.697Z,17.77
2023-03-26T13:53:37.054Z,14.70
2023-03-26T13:56:03.922Z,14.07
2023-03-26T13:59:01.201Z,15.90
2023-03-26T14:01:33.757Z,15.15
2023-03-26T14:04:33.562Z,17.70
2023-03-26T14:07:12.806Z,12.88
2023-03-26T14:09:56.075Z,19.25
2023-03-26T14:12:51.689Z,17.90
2023-03-26T14:15:24.766Z,12.35
2023-03-26T14:18:25.802Z,14.40
2023-03-26T14:21:18.002Z,16.05
2023-03-26T14:24:12.360Z,16.08
2023-03-26T14:26:54.486Z,14.70
2023-03-26T14:29:56.291Z,14.68
2023-03-26T14:32:33.260Z,12.50
2023-03-26T14:35:09.402Z,12.43
2023-03-26T14:38:00.390Z,13.02
2023-03-26T14:40:31.375Z,16.13
2023-03-26T14:43:09.640Z,12.18
2023-03-26T14:45:59.469Z,16.10
2023-03-26T14:48:37.030Z,13.32
2023-03-26T14:51:07.148Z,13.52
2023-03-26T14:53:36.462Z,13.85
2023-03-26T14:56:15.575Z,9.70
2023-03-26T14:59:21.534Z,14.05
2023-03-26T15:02:19.807Z,12.98
2023-03-26T15:05:21.968Z,11.35
2023-03-26T15:08:16.079Z,14.55
2023-03-26T15:11:07.159Z,12.30
2023-03-26T15:13:49.060Z,9.68
2023-03-26T15:16:55.929Z,12.30
2023-03-26T15:19:49.500Z,9.60
2023-03-26T15:22:53.894Z,9.13
2023-03-26T15:25:49.928Z,10.10
2023-03-26T15:28:49.802Z,14.25
2023-03-26T15:31:54.736Z,16.40
2023-03-26T15:34:39.586Z,10.65
2023-03-26T15:37:48.570Z,15.27
2023-03-26T15:40:23.859Z,12.20
2023-03-26T15:43:08.652Z,10.10
2023-03-26T15:45:44.313Z,15.30
2023-03-26T15:48:11.518Z,10.50
2023-03-26T15:50:56.575Z,13.15
2023-03-26T15:53:39.616Z,8.90
2023-03-26T15:56:14.121Z,13.48
2023-03-26T15:59:05.163Z,13.65
2023-03-26T16:02:04.006Z,12.48
2023-03-26T16:04:50.295Z,20.85
2023-03-26T16:07:38.894Z,24.27
2023-03-26T16:10:44.605Z,22.25
2023-03-26T16:13:24.251Z,13.80
2023-03-26T16:16:00.701Z,17.02
2023-03-26T16:18:35.734Z,22.05
2023-03-26T16:21:04.317Z,19.23
2023-03-26T16:23:47.522Z,13.13
2023-03-26T16:26:36.252Z,17.80
2023-03-26T16:29:24.607Z,12.05
2023-03-26T16:32:10.060Z,14.05
2023-03-26T16:34:48.153Z,13.30
2023-03-26T16:37:49.898Z,15.73
2023-03-26T16:40:16.486Z,17.73
2023-03-26T16:43:10.402Z,18.63
2023-03-26T16:45:51.938Z,15.23
2023-03-26T16:48:41.591Z,11.57
2023-03-26T16:51:25.599Z,16.75
2023-03-26T16:54:14.554Z,14.25
2023-03-26T16:56:50.563Z,15.55
2023-03-26T16:59:38.253Z,8.80
2023-03-26T17:02:27.786Z,13.10
2023-03-26T17:05:01.637Z,11.75
2023-03-26T17:07:48.568Z,12.50
2023-03-26T17:10:30.784Z,19.42
2023-03-26T17:13:00.362Z,14.85
2023-03-26T17:15:32.450Z,16.90
2023-03-26T17:18:25.468Z,10.50
2023-03-26T17:21:20.668Z,17.17
2023-03-26T17:23:57.349Z,13.90
2023-03-26T17:26:42.140Z,15.70
2023-03-26T17:29:27.327Z,24.98
2023-03-26T17:32:08.495Z,29.50
2023-03-26T17:34:37.799Z,23.70
2023-03-26T17:37:17.406Z,19.42
2023-03-26T17:39:43.701Z,21.10
2023-03-26T17:42:16.032Z,17.85
2023-03-26T17:44:45.675Z,19.67
2023-03-26T17:47:20.578Z,25.70
2023-03-26T17:49:50.973Z,16.73
2023-03-26T17:52:21.318Z,16.48
2023-03-26T17:54:50.427Z,12.48
2023-03-26T17:57:28.365Z,14.93
2023-03-26T17:59:59.067Z,14.23
2023-03-26T18:02:36.011Z,12.43
2023-03-26T18:05:04.765Z,17.60
2023-03-26T18:07:49.601Z,16.85
2023-03-26T18:10:39.031Z,17.38
2023-03-26T18:13:38.237Z,16.83
2023-03-26T18:16:17.374Z,14.90
2023-03-26T18:19:00.712Z,19.13
2023-03-26T18:21:33.028Z,15.40
2023-03-26T18:24:01.018Z,13.88
2023-03-26T18:26:40.022Z,13.25
2023-03-26T18:29:29.630Z,12.60
2023-03-26T18:32:02.554Z,18.73
2023-03-26T18:34:31.986Z,18.67
2023-03-26T18:37:08.482Z,15.27
2023-03-26T18:39:35.152Z,16.27
2023-03-26T18:42:01.728Z,15.70
2023-03-26T18:44:28.210Z,13.88
2023-03-26T18:46:55.367Z,13.02
2023-03-26T18:49:22.684Z,15.35
2023-03-26T18:51:56.894Z,14.18
2023-03-26T18:54:24.909Z,17.95
2023-03-26T18:56:52.743Z,13.27
2023-03-26T18:59:28.215Z,11.70
2023-03-26T19:01:59.261Z,16.90
2023-03-26T19:04:26.982Z,15.68
2023-03-26T19:06:55.059Z,11.77
2023-03-26T19:09:31.735Z,13.10
2023-03-26T19:12:22.824Z,14.80
2023-03-26T19:15:04.178Z,10.48
2023-03-26T19:17:35.040Z,10.93
2023-03-26T19:20:01.788Z,28.15
2023-03-26T19:22:29.228Z,21.58
2023-03-26T19:25:01.157Z,18.35
2023-03-26T19:27:27.905Z,12.35
2023-03-26T19:29:54.262Z,16.23
2023-03-26T19:32:29.261Z,16.88
2023-03-26T19:34:59.550Z,11.43
2023-03-26T19:37:29.927Z,9.18
2023-03-26T19:40:14.224Z,17.25
2023-03-26T19:42:44.728Z,16.45
2023-03-26T19:45:18.829Z,12.48
2023-03-26T19:47:50.542Z,13.05
2023-03-26T19:50:28.611Z,10.60
2023-03-26T19:53:22.030Z,16.33
2023-03-26T19:55:55.448Z,18.33
2023-03-26T19:58:21.901Z,16.20
2023-03-26T20:00:48.338Z,18.05
2023-03-26T20:03:16.710Z,13.98
2023-03-26T20:05:43.384Z,18.90
2023-03-26T20:08:14.279Z,17.02
2023-03-26T20:10:41.152Z,9.13
2023-03-26T20:13:16.302Z,11.38
2023-03-26T20:15:46.534Z,13.23
2023-03-26T20:18:12.986Z,8.52
2023-03-26T20:20:41.056Z,11.82
2023-03-26T20:23:14.049Z,12.98
2023-03-26T20:25:49.119Z,13.65
2023-03-26T20:28:18.970Z,8.45
2023-03-26T20:30:49.451Z,12.10
2023-03-26T20:33:19.568Z,14.02
2023-03-26T20:35:46.257Z,16.30
2023-03-26T20:38:12.705Z,13.90
2023-03-26T20:40:39.597Z,11.50
2023-03-26T20:43:12.028Z,13.68
2023-03-26T20:45:38.713Z,13.45
2023-03-26T20:48:05.242Z,9.93
2023-03-26T20:50:35.660Z,10.35
2023-03-26T20:53:02.445Z,11.02
2023-03-26T20:55:29.082Z,8.30
2023-03-26T20:57:55.612Z,9.98
2023-03-26T21:00:22.611Z,10.63
2023-03-26T21:02:54.746Z,10.32
2023-03-26T21:05:24.513Z,10.77
2023-03-26T21:07:52.515Z,10.77
2023-03-26T21:10:19.649Z,16.25
2023-03-26T21:12:55.654Z,10.80
2023-03-26T21:15:23.755Z,14.90
2023-03-26T21:17:51.956Z,11.40
2023-03-26T21:20:19.573Z,13.48
2023-03-26T21:23:03.906Z,12.15
2023-03-26T21:25:53.407Z,18.45
2023-03-26T21:28:42.572Z,9.90
2023-03-26T21:31:22.444Z,8.75
2023-03-26T21:33:49.491Z,9.90
2023-03-26T21:36:18.552Z,13.05
2023-03-26T21:38:45.461Z,9.38
2023-03-26T21:41:41.331Z,13.98
2023-03-26T21:44:08.502Z,11.68
2023-03-26T21:46:35.397Z,12.43
2023-03-26T21:49:01.976Z,11.32
2023-03-26T21:51:28.674Z,12.30
2023-03-26T21:53:55.412Z,12.13
2023-03-26T21:56:33.770Z,10.55
2023-03-26T21:59:07.830Z,9.38
2023-03-26T22:02:02.452Z,14.77
2023-03-26T22:04:49.183Z,11.52
2023-03-26T22:07:27.462Z,11.55
2023-03-26T22:09:54.032Z,11.90
2023-03-26T22:12:20.406Z,8.25
2023-03-26T22:14:46.822Z,9.93
2023-03-26T22:17:13.291Z,10.55
2023-03-26T22:19:39.733Z,12.30
2023-03-26T22:22:06.158Z,13.50
2023-03-26T22:24:32.756Z,14.07
2023-03-26T22:26:59.174Z,11.23
2023-03-26T22:29:25.547Z,7.78
2023-03-26T22:31:52.308Z,12.73
2023-03-26T22:34:19.673Z,15.77
2023-03-26T22:36:46.356Z,13.27
2023-03-26T22:39:12.760Z,8.88
2023-03-26T22:41:39.268Z,11.07
2023-03-26T22:44:19.132Z,11.82
2023-03-26T22:46:48.979Z,14.98
2023-03-26T22:49:15.795Z,10.70
2023-03-26T22:51:42.224Z,10.80
2023-03-26T22:54:09.394Z,15.75
2023-03-26T22:56:36.295Z,13.73
2023-03-26T22:59:03.710Z,18.75
2023-03-26T23:01:30.359Z,14.63
2023-03-26T23:03:57.576Z,14.05
2023-03-26T23:06:24.008Z,10.35
2023-03-26T23:08:51.260Z,15.68
2023-03-26T23:11:18.910Z,13.73
2023-03-26T23:13:46.100Z,11.20
2023-03-26T23:16:14.016Z,13.05
2023-03-26T23:18:41.229Z,10.95
2023-03-26T23:21:13.435Z,17.10
2023-03-26T23:23:40.116Z,13.57
2023-03-26T23:26:06.938Z,12.13
2023-03-26T23:28:34.439Z,13.88
2023-03-26T23:31:04.163Z,13.35
2023-03-26T23:33:34.133Z,11.27
2023-03-26T23:36:04.215Z,11.40
2023-03-26T23:38:43.604Z,8.63
2023-03-26T23:41:14.652Z,12.98
2023-03-26T23:43:54.645Z,11.88
2023-03-26T23:46:23.923Z,13.40
2023-03-26T23:48:51.189Z,8.30
2023-03-26T23:51:19.974Z,13.50
2023-03-26T23:53:47.191Z,12.55
2023-03-26T23:56:13.649Z,14.40
2023-03-26T23:58:40.270Z,12.27
